sensor_id;sensor_type;location;lat;lon;timestamp;pressure;altitude;pressure_sealevel;temperature;humidity
64683;BME280;51107;47.652;19.016;2023-03-25T00:01:17;98966.94;;;14.88;60.51
64683;BME280;51107;47.652;19.016;2023-03-25T00:03:46;98970.59;;;14.93;61.82
64683;BME280;51107;47.652;19.016;2023-03-25T00:06:38;98962.53;;;14.95;62.07
64683;BME280;51107;47.652;19.016;2023-03-25T00:09:51;98969.59;;;14.94;60.90
64683;BME280;51107;47.652;19.016;2023-03-25T00:13:03;98972.00;;;14.96;61.56
64683;BME280;51107;47.652;19.016;2023-03-25T00:15:57;98971.41;;;15.01;58.99
64683;BME280;51107;47.652;19.016;2023-03-25T00:18:49;98963.16;;;15.10;59.12
64683;BME280;51107;47.652;19.016;2023-03-25T00:22:18;98968.59;;;15.16;59.10
64683;BME280;51107;47.652;19.016;2023-03-25T00:25:12;98967.41;;;15.25;58.50
64683;BME280;51107;47.652;19.016;2023-03-25T00:28:21;98965.41;;;15.40;58.16
64683;BME280;51107;47.652;19.016;2023-03-25T00:31:32;98974.44;;;15.18;59.11
64683;BME280;51107;47.652;19.016;2023-03-25T00:34:55;98978.53;;;15.47;58.21
64683;BME280;51107;47.652;19.016;2023-03-25T00:37:51;98976.69;;;15.27;58.88
64683;BME280;51107;47.652;19.016;2023-03-25T00:41:24;98973.06;;;15.35;58.54
64683;BME280;51107;47.652;19.016;2023-03-25T00:44:32;98968.81;;;15.34;59.32
64683;BME280;51107;47.652;19.016;2023-03-25T00:48:01;98974.66;;;15.56;58.49
64683;BME280;51107;47.652;19.016;2023-03-25T00:51:26;98963.78;;;15.33;60.06
64683;BME280;51107;47.652;19.016;2023-03-25T00:54:43;98964.00;;;15.51;60.28
64683;BME280;51107;47.652;19.016;2023-03-25T00:57:35;98961.97;;;15.33;61.92
64683;BME280;51107;47.652;19.016;2023-03-25T01:00:39;98964.56;;;15.13;63.32
64683;BME280;51107;47.652;19.016;2023-03-25T01:03:31;98971.84;;;15.11;64.69
64683;BME280;51107;47.652;19.016;2023-03-25T01:06:34;98960.91;;;15.01;65.72
64683;BME280;51107;47.652;19.016;2023-03-25T01:09:33;98957.84;;;14.77;67.24
64683;BME280;51107;47.652;19.016;2023-03-25T01:12:56;98955.94;;;14.57;68.66
64683;BME280;51107;47.652;19.016;2023-03-25T01:15:51;98955.13;;;14.57;69.62
64683;BME280;51107;47.652;19.016;2023-03-25T01:19:03;98951.81;;;14.35;71.20
64683;BME280;51107;47.652;19.016;2023-03-25T01:22:14;98956.19;;;14.21;72.43
64683;BME280;51107;47.652;19.016;2023-03-25T01:25:36;98949.91;;;14.15;73.72
64683;BME280;51107;47.652;19.016;2023-03-25T01:28:26;98943.44;;;14.11;74.70
64683;BME280;51107;47.652;19.016;2023-03-25T01:31:01;98943.56;;;13.96;75.87
64683;BME280;51107;47.652;19.016;2023-03-25T01:34:10;98954.38;;;13.86;76.92
64683;BME280;51107;47.652;19.016;2023-03-25T01:37:39;98942.44;;;13.77;78.37
64683;BME280;51107;47.652;19.016;2023-03-25T01:40:25;98947.06;;;13.75;79.06
64683;BME280;51107;47.652;19.016;2023-03-25T01:44:09;98954.28;;;13.73;79.29
64683;BME280;51107;47.652;19.016;2023-03-25T01:47:17;98955.06;;;13.67;79.97
64683;BME280;51107;47.652;19.016;2023-03-25T01:50:46;98952.44;;;13.38;81.00
64683;BME280;51107;47.652;19.016;2023-03-25T01:53:53;98950.63;;;13.39;80.93
64683;BME280;51107;47.652;19.016;2023-03-25T01:57:18;98950.75;;;13.31;82.01
64683;BME280;51107;47.652;19.016;2023-03-25T02:00:27;98957.34;;;13.27;82.96
64683;BME280;51107;47.652;19.016;2023-03-25T02:03:20;98950.75;;;13.31;83.32
64683;BME280;51107;47.652;19.016;2023-03-25T02:06:18;98948.50;;;13.06;86.77
64683;BME280;51107;47.652;19.016;2023-03-25T02:09:40;98948.25;;;13.01;88.19
64683;BME280;51107;47.652;19.016;2023-03-25T02:13:10;98962.25;;;12.93;90.39
64683;BME280;51107;47.652;19.016;2023-03-25T02:16:55;98961.25;;;12.94;92.53
64683;BME280;51107;47.652;19.016;2023-03-25T02:27:11;98967.41;;;12.35;99.40
64683;BME280;51107;47.652;19.016;2023-03-25T02:30:16;98961.78;;;12.16;100.00
64683;BME280;51107;47.652;19.016;2023-03-25T02:40:47;98974.41;;;11.89;100.00
64683;BME280;51107;47.652;19.016;2023-03-25T02:47:10;98972.44;;;11.92;100.00
64683;BME280;51107;47.652;19.016;2023-03-25T02:50:25;98962.81;;;11.92;100.00
64683;BME280;51107;47.652;19.016;2023-03-25T02:53:30;98968.28;;;11.82;100.00
64683;BME280;51107;47.652;19.016;2023-03-25T02:56:55;98963.53;;;11.86;100.00
64683;BME280;51107;47.652;19.016;2023-03-25T02:59:49;98963.34;;;11.87;100.00
64683;BME280;51107;47.652;19.016;2023-03-25T03:02:56;98980.69;;;11.80;100.00
64683;BME280;51107;47.652;19.016;2023-03-25T03:06:06;98986.75;;;11.81;100.00
64683;BME280;51107;47.652;19.016;2023-03-25T03:09:43;98977.56;;;11.85;100.00
64683;BME280;51107;47.652;19.016;2023-03-25T03:13:03;98980.50;;;11.67;100.00
64683;BME280;51107;47.652;19.016;2023-03-25T03:26:47;99003.13;;;11.51;100.00
64683;BME280;51107;47.652;19.016;2023-03-25T03:30:28;98998.69;;;11.37;100.00
64683;BME280;51107;47.652;19.016;2023-03-25T03:36:37;98997.63;;;11.23;100.00
64683;BME280;51107;47.652;19.016;2023-03-25T03:39:41;98996.25;;;11.12;100.00
64683;BME280;51107;47.652;19.016;2023-03-25T03:43:00;99002.66;;;11.01;100.00
64683;BME280;51107;47.652;19.016;2023-03-25T03:46:09;99001.38;;;10.97;100.00
64683;BME280;51107;47.652;19.016;2023-03-25T03:49:19;99005.63;;;10.98;100.00
64683;BME280;51107;47.652;19.016;2023-03-25T03:52:18;99002.56;;;10.86;100.00
64683;BME280;51107;47.652;19.016;2023-03-25T03:55:31;99000.84;;;10.79;100.00
64683;BME280;51107;47.652;19.016;2023-03-25T03:58:38;99006.38;;;10.76;100.00
64683;BME280;51107;47.652;19.016;2023-03-25T04:01:54;99006.53;;;10.74;100.00
64683;BME280;51107;47.652;19.016;2023-03-25T04:04:59;99011.75;;;10.74;100.00
64683;BME280;51107;47.652;19.016;2023-03-25T04:07:57;99020.56;;;10.73;100.00
64683;BME280;51107;47.652;19.016;2023-03-25T04:11:09;99038.81;;;10.73;100.00
64683;BME280;51107;47.652;19.016;2023-03-25T04:14:02;99030.47;;;10.78;100.00
64683;BME280;51107;47.652;19.016;2023-03-25T04:17:07;99042.22;;;10.74;100.00
64683;BME280;51107;47.652;19.016;2023-03-25T04:19:58;99043.03;;;10.74;100.00
64683;BME280;51107;47.652;19.016;2023-03-25T04:23:03;99057.13;;;10.88;100.00
64683;BME280;51107;47.652;19.016;2023-03-25T04:25:57;99044.44;;;10.85;100.00
64683;BME280;51107;47.652;19.016;2023-03-25T04:29:04;99043.50;;;10.78;100.00
64683;BME280;51107;47.652;19.016;2023-03-25T04:31:54;99059.12;;;10.78;100.00
64683;BME280;51107;47.652;19.016;2023-03-25T04:34:59;99062.72;;;10.77;100.00
64683;BME280;51107;47.652;19.016;2023-03-25T04:37:51;99065.00;;;10.71;100.00
64683;BME280;51107;47.652;19.016;2023-03-25T04:40:59;99068.06;;;10.83;100.00
64683;BME280;51107;47.652;19.016;2023-03-25T04:43:50;99059.75;;;10.80;100.00
64683;BME280;51107;47.652;19.016;2023-03-25T04:46:54;99069.56;;;10.78;100.00
64683;BME280;51107;47.652;19.016;2023-03-25T04:49:57;99064.00;;;10.81;100.00
64683;BME280;51107;47.652;19.016;2023-03-25T04:53:00;99070.81;;;10.90;100.00
64683;BME280;51107;47.652;19.016;2023-03-25T04:55:50;99069.47;;;10.94;100.00
64683;BME280;51107;47.652;19.016;2023-03-25T04:58:54;99070.03;;;10.81;100.00
64683;BME280;51107;47.652;19.016;2023-03-25T05:01:46;99066.59;;;10.81;100.00
64683;BME280;51107;47.652;19.016;2023-03-25T05:04:50;99076.84;;;10.82;100.00
64683;BME280;51107;47.652;19.016;2023-03-25T05:07:54;99079.41;;;10.91;100.00
64683;BME280;51107;47.652;19.016;2023-03-25T05:11:00;99076.50;;;10.94;100.00
64683;BME280;51107;47.652;19.016;2023-03-25T05:13:51;99071.28;;;10.94;100.00
64683;BME280;51107;47.652;19.016;2023-03-25T05:16:54;99083.31;;;10.95;100.00
64683;BME280;51107;47.652;19.016;2023-03-25T05:19:46;99077.31;;;10.94;100.00
64683;BME280;51107;47.652;19.016;2023-03-25T05:22:50;99094.59;;;10.87;100.00
64683;BME280;51107;47.652;19.016;2023-03-25T05:25:47;99103.19;;;10.96;100.00
64683;BME280;51107;47.652;19.016;2023-03-25T05:28:52;99101.56;;;10.95;100.00
64683;BME280;51107;47.652;19.016;2023-03-25T05:31:46;99096.28;;;11.11;100.00
64683;BME280;51107;47.652;19.016;2023-03-25T05:34:38;99100.72;;;11.02;100.00
64683;BME280;51107;47.652;19.016;2023-03-25T05:37:36;99100.53;;;11.04;100.00
64683;BME280;51107;47.652;19.016;2023-03-25T05:40:42;99112.78;;;11.03;100.00
64683;BME280;51107;47.652;19.016;2023-03-25T05:43:34;99112.47;;;10.98;100.00
64683;BME280;51107;47.652;19.016;2023-03-25T05:46:38;99122.09;;;10.98;100.00
64683;BME280;51107;47.652;19.016;2023-03-25T05:49:29;99109.34;;;11.03;99.00
64683;BME280;51107;47.652;19.016;2023-03-25T05:52:33;99099.06;;;11.10;99.24
64683;BME280;51107;47.652;19.016;2023-03-25T05:55:26;99113.88;;;11.09;98.88
64683;BME280;51107;47.652;19.016;2023-03-25T05:58:34;99113.22;;;11.07;99.51
64683;BME280;51107;47.652;19.016;2023-03-25T06:01:21;99115.84;;;11.07;97.86
64683;BME280;51107;47.652;19.016;2023-03-25T06:04:34;99113.03;;;11.17;95.66
64683;BME280;51107;47.652;19.016;2023-03-25T06:07:31;99106.44;;;10.98;98.23
64683;BME280;51107;47.652;19.016;2023-03-25T06:10:37;99121.91;;;10.99;97.27
64683;BME280;51107;47.652;19.016;2023-03-25T06:13:28;99113.75;;;11.02;98.72
64683;BME280;51107;47.652;19.016;2023-03-25T06:16:32;99117.50;;;11.00;98.70
64683;BME280;51107;47.652;19.016;2023-03-25T06:19:23;99120.38;;;11.13;96.72
64683;BME280;51107;47.652;19.016;2023-03-25T06:22:28;99121.69;;;11.17;94.58
64683;BME280;51107;47.652;19.016;2023-03-25T06:25:30;99124.91;;;11.19;94.55
64683;BME280;51107;47.652;19.016;2023-03-25T06:28:34;99114.25;;;11.29;92.86
64683;BME280;51107;47.652;19.016;2023-03-25T06:31:25;99112.31;;;11.31;92.17
64683;BME280;51107;47.652;19.016;2023-03-25T06:34:29;99121.31;;;11.20;92.98
64683;BME280;51107;47.652;19.016;2023-03-25T06:37:22;99117.75;;;11.21;92.88
64683;BME280;51107;47.652;19.016;2023-03-25T06:40:28;99127.69;;;11.18;92.42
64683;BME280;51107;47.652;19.016;2023-03-25T06:43:30;99117.69;;;11.30;91.10
64683;BME280;51107;47.652;19.016;2023-03-25T06:46:38;99125.37;;;11.23;91.84
64683;BME280;51107;47.652;19.016;2023-03-25T06:49:40;99136.72;;;11.38;88.22
64683;BME280;51107;47.652;19.016;2023-03-25T06:52:35;99141.63;;;11.33;90.32
64683;BME280;51107;47.652;19.016;2023-03-25T06:55:26;99155.94;;;11.37;90.03
64683;BME280;51107;47.652;19.016;2023-03-25T06:58:30;99137.16;;;11.50;86.97
64683;BME280;51107;47.652;19.016;2023-03-25T07:01:27;99141.25;;;11.68;86.57
64683;BME280;51107;47.652;19.016;2023-03-25T07:04:39;99150.41;;;11.64;86.20
64683;BME280;51107;47.652;19.016;2023-03-25T07:07:30;99152.28;;;11.78;85.63
64683;BME280;51107;47.652;19.016;2023-03-25T07:10:33;99147.28;;;12.00;84.00
64683;BME280;51107;47.652;19.016;2023-03-25T07:13:24;99140.00;;;12.10;83.91
64683;BME280;51107;47.652;19.016;2023-03-25T07:16:20;99140.53;;;12.29;83.44
64683;BME280;51107;47.652;19.016;2023-03-25T07:19:10;99151.12;;;12.27;84.14
64683;BME280;51107;47.652;19.016;2023-03-25T07:22:13;99156.53;;;12.26;84.13
64683;BME280;51107;47.652;19.016;2023-03-25T07:25:05;99152.56;;;12.30;82.49
64683;BME280;51107;47.652;19.016;2023-03-25T07:28:29;99171.59;;;12.38;81.70
64683;BME280;51107;47.652;19.016;2023-03-25T07:31:20;99180.44;;;12.37;81.45
64683;BME280;51107;47.652;19.016;2023-03-25T07:34:24;99169.66;;;12.55;80.32
64683;BME280;51107;47.652;19.016;2023-03-25T07:37:15;99173.53;;;12.74;78.33
64683;BME280;51107;47.652;19.016;2023-03-25T07:40:22;99176.16;;;12.74;77.80
64683;BME280;51107;47.652;19.016;2023-03-25T07:43:15;99182.19;;;13.05;79.01
64683;BME280;51107;47.652;19.016;2023-03-25T07:46:19;99172.91;;;13.17;75.83
64683;BME280;51107;47.652;19.016;2023-03-25T07:49:15;99170.28;;;13.32;75.64
64683;BME280;51107;47.652;19.016;2023-03-25T07:52:08;99161.31;;;13.56;74.18
64683;BME280;51107;47.652;19.016;2023-03-25T07:54:59;99162.78;;;14.02;72.26
64683;BME280;51107;47.652;19.016;2023-03-25T07:58:01;99156.75;;;14.58;72.13
64683;BME280;51107;47.652;19.016;2023-03-25T08:00:55;99156.72;;;14.80;68.90
64683;BME280;51107;47.652;19.016;2023-03-25T08:04:08;99155.19;;;14.99;69.20
64683;BME280;51107;47.652;19.016;2023-03-25T08:07:02;99161.19;;;15.28;67.52
64683;BME280;51107;47.652;19.016;2023-03-25T08:10:06;99167.53;;;15.54;66.99
64683;BME280;51107;47.652;19.016;2023-03-25T08:13:00;99166.16;;;15.78;66.45
64683;BME280;51107;47.652;19.016;2023-03-25T08:16:10;99160.38;;;16.29;64.82
64683;BME280;51107;47.652;19.016;2023-03-25T08:19:01;99167.25;;;16.04;63.55
64683;BME280;51107;47.652;19.016;2023-03-25T08:22:05;99162.34;;;16.61;63.04
64683;BME280;51107;47.652;19.016;2023-03-25T08:24:56;99152.03;;;16.59;60.70
64683;BME280;51107;47.652;19.016;2023-03-25T08:28:01;99156.09;;;16.62;63.32
64683;BME280;51107;47.652;19.016;2023-03-25T08:30:52;99161.56;;;16.47;59.09
64683;BME280;51107;47.652;19.016;2023-03-25T08:34:00;99162.37;;;16.47;59.88
64683;BME280;51107;47.652;19.016;2023-03-25T08:36:52;99167.22;;;16.37;60.91
64683;BME280;51107;47.652;19.016;2023-03-25T08:39:56;99159.34;;;16.57;58.96
64683;BME280;51107;47.652;19.016;2023-03-25T08:42:50;99165.63;;;16.16;61.22
64683;BME280;51107;47.652;19.016;2023-03-25T08:45:54;99150.44;;;15.85;62.79
64683;BME280;51107;47.652;19.016;2023-03-25T08:48:45;99168.84;;;15.85;64.05
64683;BME280;51107;47.652;19.016;2023-03-25T08:51:41;99157.75;;;16.23;61.27
64683;BME280;51107;47.652;19.016;2023-03-25T08:54:45;99153.28;;;16.37;60.87
64683;BME280;51107;47.652;19.016;2023-03-25T08:57:37;99148.25;;;16.22;59.88
64683;BME280;51107;47.652;19.016;2023-03-25T09:00:40;99153.44;;;15.75;60.58
64683;BME280;51107;47.652;19.016;2023-03-25T09:03:32;99140.78;;;16.12;62.06
64683;BME280;51107;47.652;19.016;2023-03-25T09:06:35;99140.94;;;17.23;57.89
64683;BME280;51107;47.652;19.016;2023-03-25T09:09:27;99127.94;;;16.89;57.94
64683;BME280;51107;47.652;19.016;2023-03-25T09:12:32;99128.91;;;17.02;57.39
64683;BME280;51107;47.652;19.016;2023-03-25T09:15:24;99132.44;;;17.98;53.18
64683;BME280;51107;47.652;19.016;2023-03-25T09:18:27;99143.81;;;17.60;54.17
64683;BME280;51107;47.652;19.016;2023-03-25T09:21:18;99143.72;;;17.73;54.46
64683;BME280;51107;47.652;19.016;2023-03-25T09:24:22;99151.28;;;17.18;53.96
64683;BME280;51107;47.652;19.016;2023-03-25T09:27:17;99142.28;;;17.45;54.11
64683;BME280;51107;47.652;19.016;2023-03-25T09:30:20;99142.53;;;18.01;53.61
64683;BME280;51107;47.652;19.016;2023-03-25T09:33:11;99141.63;;;18.14;52.76
64683;BME280;51107;47.652;19.016;2023-03-25T09:36:14;99145.97;;;18.02;51.64
64683;BME280;51107;47.652;19.016;2023-03-25T09:39:05;99153.66;;;18.54;50.04
64683;BME280;51107;47.652;19.016;2023-03-25T09:45:38;99146.00;;;18.89;50.69
64683;BME280;51107;47.652;19.016;2023-03-25T09:48:44;99140.63;;;19.45;48.83
64683;BME280;51107;47.652;19.016;2023-03-25T09:51:37;99158.50;;;19.61;46.83
64683;BME280;51107;47.652;19.016;2023-03-25T09:54:47;99142.19;;;19.95;47.60
64683;BME280;51107;47.652;19.016;2023-03-25T09:57:45;99140.47;;;20.12;46.86
64683;BME280;51107;47.652;19.016;2023-03-25T10:11:43;99152.81;;;19.15;47.20
64683;BME280;51107;47.652;19.016;2023-03-25T10:14:39;99152.50;;;19.24;47.92
64683;BME280;51107;47.652;19.016;2023-03-25T10:27:37;99151.41;;;18.07;48.95
64683;BME280;51107;47.652;19.016;2023-03-25T10:30:34;99160.41;;;17.99;50.71
64683;BME280;51107;47.652;19.016;2023-03-25T10:33:50;99166.16;;;18.40;49.01
64683;BME280;51107;47.652;19.016;2023-03-25T10:36:50;99171.75;;;18.50;49.90
64683;BME280;51107;47.652;19.016;2023-03-25T10:40:11;99161.44;;;19.23;47.16
64683;BME280;51107;47.652;19.016;2023-03-25T10:46:44;99152.63;;;18.98;47.49
64683;BME280;51107;47.652;19.016;2023-03-25T10:49:39;99145.44;;;18.62;48.63
64683;BME280;51107;47.652;19.016;2023-03-25T10:52:47;99155.78;;;18.20;48.36
64683;BME280;51107;47.652;19.016;2023-03-25T10:55:41;99161.25;;;17.54;50.04
64683;BME280;51107;47.652;19.016;2023-03-25T10:58:50;99158.91;;;17.71;49.69
64683;BME280;51107;47.652;19.016;2023-03-25T11:01:42;99159.34;;;17.68;50.63
64683;BME280;51107;47.652;19.016;2023-03-25T11:04:48;99157.13;;;18.04;48.93
64683;BME280;51107;47.652;19.016;2023-03-25T11:07:50;99157.06;;;18.36;50.39
64683;BME280;51107;47.652;19.016;2023-03-25T11:10:55;99157.78;;;18.68;46.41
64683;BME280;51107;47.652;19.016;2023-03-25T11:13:55;99155.94;;;18.68;46.64
64683;BME280;51107;47.652;19.016;2023-03-25T11:17:00;99156.47;;;18.08;47.11
64683;BME280;51107;47.652;19.016;2023-03-25T11:20:04;99164.97;;;18.10;47.35
64683;BME280;51107;47.652;19.016;2023-03-25T11:23:35;99154.78;;;17.50;47.48
64683;BME280;51107;47.652;19.016;2023-03-25T11:26:29;99172.72;;;17.28;47.58
64683;BME280;51107;47.652;19.016;2023-03-25T11:29:38;99169.31;;;17.21;47.05
64683;BME280;51107;47.652;19.016;2023-03-25T11:32:35;99165.75;;;16.95;46.54
64683;BME280;51107;47.652;19.016;2023-03-25T11:35:50;99160.16;;;17.30;45.46
64683;BME280;51107;47.652;19.016;2023-03-25T11:38:45;99168.91;;;17.17;45.45
64683;BME280;51107;47.652;19.016;2023-03-25T11:41:49;99169.63;;;16.72;47.84
64683;BME280;51107;47.652;19.016;2023-03-25T11:44:53;99175.12;;;16.44;48.44
64683;BME280;51107;47.652;19.016;2023-03-25T11:48:01;99177.13;;;15.88;50.45
64683;BME280;51107;47.652;19.016;2023-03-25T11:51:01;99182.16;;;15.83;50.59
64683;BME280;51107;47.652;19.016;2023-03-25T11:54:07;99172.25;;;15.78;50.51
64683;BME280;51107;47.652;19.016;2023-03-25T11:57:05;99172.81;;;15.74;49.89
64683;BME280;51107;47.652;19.016;2023-03-25T12:03:35;99170.25;;;15.81;49.96
64683;BME280;51107;47.652;19.016;2023-03-25T12:06:28;99163.59;;;15.91;51.16
64683;BME280;51107;47.652;19.016;2023-03-25T12:09:32;99162.37;;;16.07;48.38
64683;BME280;51107;47.652;19.016;2023-03-25T12:12:45;99170.25;;;16.07;49.04
64683;BME280;51107;47.652;19.016;2023-03-25T12:19:32;99174.22;;;15.70;48.02
64683;BME280;51107;47.652;19.016;2023-03-25T12:23:01;99181.59;;;15.39;47.99
64683;BME280;51107;47.652;19.016;2023-03-25T12:26:07;99171.91;;;15.40;48.12
64683;BME280;51107;47.652;19.016;2023-03-25T12:29:56;99159.53;;;15.20;48.83
64683;BME280;51107;47.652;19.016;2023-03-25T13:06:44;99096.66;;;15.54;47.29
64683;BME280;51107;47.652;19.016;2023-03-25T13:13:01;99091.34;;;15.34;46.73
64683;BME280;51107;47.652;19.016;2023-03-25T13:16:09;99101.47;;;15.50;47.04
64683;BME280;51107;47.652;19.016;2023-03-25T13:19:10;99102.06;;;15.52;45.90
64683;BME280;51107;47.652;19.016;2023-03-25T13:22:21;99095.81;;;15.53;46.65
64683;BME280;51107;47.652;19.016;2023-03-25T13:25:47;99099.09;;;15.62;46.11
64683;BME280;51107;47.652;19.016;2023-03-25T13:31:51;99100.88;;;15.61;46.86
64683;BME280;51107;47.652;19.016;2023-03-25T13:35:19;99109.37;;;15.57;47.11
64683;BME280;51107;47.652;19.016;2023-03-25T13:38:23;99102.81;;;15.26;47.13
64683;BME280;51107;47.652;19.016;2023-03-25T13:41:45;99101.87;;;15.40;46.74
64683;BME280;51107;47.652;19.016;2023-03-25T13:44:40;99109.06;;;15.18;46.82
64683;BME280;51107;47.652;19.016;2023-03-25T13:51:23;99112.53;;;14.77;48.86
64683;BME280;51107;47.652;19.016;2023-03-25T13:54:51;99104.03;;;14.75;47.48
64683;BME280;51107;47.652;19.016;2023-03-25T14:04:46;99090.53;;;15.26;46.58
64683;BME280;51107;47.652;19.016;2023-03-25T14:14:21;99114.28;;;15.11;46.55
64683;BME280;51107;47.652;19.016;2023-03-25T14:17:30;99104.56;;;14.99;46.86
64683;BME280;51107;47.652;19.016;2023-03-25T14:20:35;99115.53;;;15.22;46.33
64683;BME280;51107;47.652;19.016;2023-03-25T14:23:40;99096.41;;;15.42;46.18
64683;BME280;51107;47.652;19.016;2023-03-25T14:26:32;99081.91;;;15.59;45.90
64683;BME280;51107;47.652;19.016;2023-03-25T14:29:40;99095.81;;;15.46;45.79
64683;BME280;51107;47.652;19.016;2023-03-25T14:32:38;99100.88;;;15.41;46.45
64683;BME280;51107;47.652;19.016;2023-03-25T14:35:45;99100.66;;;15.36;46.16
64683;BME280;51107;47.652;19.016;2023-03-25T14:38:54;99105.53;;;15.59;45.15
64683;BME280;51107;47.652;19.016;2023-03-25T14:42:00;99097.22;;;15.49;45.90
64683;BME280;51107;47.652;19.016;2023-03-25T14:44:52;99102.44;;;15.36;45.91
64683;BME280;51107;47.652;19.016;2023-03-25T14:47:59;99096.81;;;15.39;46.52
64683;BME280;51107;47.652;19.016;2023-03-25T14:51:16;99101.87;;;15.47;45.80
64683;BME280;51107;47.652;19.016;2023-03-25T14:54:30;99095.38;;;15.29;46.10
64683;BME280;51107;47.652;19.016;2023-03-25T14:57:24;99098.59;;;15.32;45.63
64683;BME280;51107;47.652;19.016;2023-03-25T15:00:31;99098.09;;;15.01;46.46
64683;BME280;51107;47.652;19.016;2023-03-25T15:03:31;99105.16;;;15.01;46.30
64683;BME280;51107;47.652;19.016;2023-03-25T15:06:36;99110.66;;;15.06;45.92
64683;BME280;51107;47.652;19.016;2023-03-25T15:09:29;99108.13;;;14.84;46.00
64683;BME280;51107;47.652;19.016;2023-03-25T15:12:36;99106.25;;;14.71;46.79
64683;BME280;51107;47.652;19.016;2023-03-25T15:15:52;99101.00;;;14.71;46.66
64683;BME280;51107;47.652;19.016;2023-03-25T15:24:58;99116.44;;;14.59;46.15
64683;BME280;51107;47.652;19.016;2023-03-25T15:41:56;99103.38;;;14.31;48.45
64683;BME280;51107;47.652;19.016;2023-03-25T15:52:00;99094.69;;;14.31;46.59
64683;BME280;51107;47.652;19.016;2023-03-25T15:54:58;99101.44;;;14.18;47.37
64683;BME280;51107;47.652;19.016;2023-03-25T15:58:12;99098.03;;;14.18;46.79
64683;BME280;51107;47.652;19.016;2023-03-25T16:01:26;99086.66;;;14.04;47.15
64683;BME280;51107;47.652;19.016;2023-03-25T16:04:41;99098.97;;;14.10;46.94
64683;BME280;51107;47.652;19.016;2023-03-25T16:07:35;99092.94;;;14.09;46.92
64683;BME280;51107;47.652;19.016;2023-03-25T16:10:43;99101.59;;;14.10;46.87
64683;BME280;51107;47.652;19.016;2023-03-25T16:13:40;99096.69;;;14.00;46.14
64683;BME280;51107;47.652;19.016;2023-03-25T16:16:51;99097.06;;;13.97;46.50
64683;BME280;51107;47.652;19.016;2023-03-25T16:19:53;99093.22;;;13.71;46.87
64683;BME280;51107;47.652;19.016;2023-03-25T16:22:59;99106.59;;;13.62;46.28
64683;BME280;51107;47.652;19.016;2023-03-25T16:25:55;99092.28;;;13.57;46.37
64683;BME280;51107;47.652;19.016;2023-03-25T16:29:14;99094.03;;;13.50;46.62
64683;BME280;51107;47.652;19.016;2023-03-25T16:32:17;99098.75;;;13.40;47.12
64683;BME280;51107;47.652;19.016;2023-03-25T16:35:31;99096.59;;;13.29;47.45
64683;BME280;51107;47.652;19.016;2023-03-25T16:38:23;99102.56;;;13.22;47.00
64683;BME280;51107;47.652;19.016;2023-03-25T16:41:48;99091.72;;;13.25;46.33
64683;BME280;51107;47.652;19.016;2023-03-25T16:44:57;99094.72;;;13.22;47.05
64683;BME280;51107;47.652;19.016;2023-03-25T16:48:34;99098.91;;;13.02;47.45
64683;BME280;51107;47.652;19.016;2023-03-25T16:51:29;99108.53;;;13.01;48.57
64683;BME280;51107;47.652;19.016;2023-03-25T16:55:11;99107.56;;;13.02;47.72
64683;BME280;51107;47.652;19.016;2023-03-25T16:58:17;99109.28;;;12.95;47.53
64683;BME280;51107;47.652;19.016;2023-03-25T17:01:21;99113.78;;;12.86;47.92
64683;BME280;51107;47.652;19.016;2023-03-25T17:04:18;99113.62;;;12.73;48.47
64683;BME280;51107;47.652;19.016;2023-03-25T17:07:25;99107.47;;;12.81;47.77
64683;BME280;51107;47.652;19.016;2023-03-25T17:10:22;99117.13;;;12.80;48.48
64683;BME280;51107;47.652;19.016;2023-03-25T17:13:42;99113.62;;;12.73;47.76
64683;BME280;51107;47.652;19.016;2023-03-25T17:16:35;99120.91;;;12.63;48.50
64683;BME280;51107;47.652;19.016;2023-03-25T17:19:46;99125.22;;;12.55;48.23
64683;BME280;51107;47.652;19.016;2023-03-25T17:22:38;99125.13;;;12.49;48.85
64683;BME280;51107;47.652;19.016;2023-03-25T17:25:58;99138.28;;;12.40;49.63
64683;BME280;51107;47.652;19.016;2023-03-25T17:29:05;99140.44;;;12.37;49.21
64683;BME280;51107;47.652;19.016;2023-03-25T17:32:18;99128.44;;;12.28;49.79
64683;BME280;51107;47.652;19.016;2023-03-25T17:35:25;99131.03;;;12.13;51.26
64683;BME280;51107;47.652;19.016;2023-03-25T17:38:37;99128.53;;;11.96;51.48
64683;BME280;51107;47.652;19.016;2023-03-25T17:41:37;99140.81;;;11.87;53.02
64683;BME280;51107;47.652;19.016;2023-03-25T17:44:44;99132.28;;;11.70;53.02
64683;BME280;51107;47.652;19.016;2023-03-25T17:47:30;99140.84;;;11.56;53.82
64683;BME280;51107;47.652;19.016;2023-03-25T17:50:34;99144.44;;;11.55;53.57
64683;BME280;51107;47.652;19.016;2023-03-25T17:53:13;99139.44;;;11.45;53.46
64683;BME280;51107;47.652;19.016;2023-03-25T17:56:32;99139.00;;;11.33;54.25
64683;BME280;51107;47.652;19.016;2023-03-25T17:59:42;99144.97;;;11.19;54.59
64683;BME280;51107;47.652;19.016;2023-03-25T18:02:51;99149.06;;;11.13;55.32
64683;BME280;51107;47.652;19.016;2023-03-25T18:06:01;99156.72;;;11.15;55.45
64683;BME280;51107;47.652;19.016;2023-03-25T18:09:14;99167.50;;;11.03;55.21
64683;BME280;51107;47.652;19.016;2023-03-25T18:12:40;99165.06;;;11.02;55.31
64683;BME280;51107;47.652;19.016;2023-03-25T18:15:37;99172.91;;;11.02;54.42
64683;BME280;51107;47.652;19.016;2023-03-25T18:19:16;99181.38;;;10.96;54.99
64683;BME280;51107;47.652;19.016;2023-03-25T18:22:26;99183.03;;;10.88;55.27
64683;BME280;51107;47.652;19.016;2023-03-25T18:25:47;99176.38;;;10.78;56.14
64683;BME280;51107;47.652;19.016;2023-03-25T18:28:47;99187.63;;;10.62;56.14
64683;BME280;51107;47.652;19.016;2023-03-25T18:32:10;99190.22;;;10.53;57.55